createdAt,value
2019-02-20T00:00:04.133Z,25.66
2019-02-20T00:01:04.178Z,25.62
2019-02-20T00:02:04.179Z,25.62
2019-02-20T00:03:04.184Z,25.66
2019-02-20T00:04:04.263Z,25.53
2019-02-20T00:05:04.218Z,25.56
2019-02-20T00:06:04.234Z,25.63
2019-02-20T00:07:04.253Z,25.65
2019-02-20T00:08:04.292Z,25.65
2019-02-20T00:09:04.286Z,25.63
2019-02-20T00:10:04.304Z,25.74
2019-02-20T00:11:04.320Z,25.73
2019-02-20T00:12:04.339Z,25.80
2019-02-20T00:13:04.362Z,25.67
2019-02-20T00:14:04.372Z,25.62
2019-02-20T00:15:04.400Z,25.66
2019-02-20T00:16:04.410Z,25.67
2019-02-20T00:17:04.434Z,25.73
2019-02-20T00:18:04.445Z,25.77
2019-02-20T00:19:04.469Z,25.85
2019-02-20T00:20:04.478Z,25.78
2019-02-20T00:21:04.498Z,25.84
2019-02-20T00:22:04.526Z,25.73
2019-02-20T00:23:04.530Z,25.80
2019-02-20T00:24:04.550Z,25.77
2019-02-20T00:25:04.567Z,25.75
2019-02-20T00:26:04.586Z,25.78
2019-02-20T00:27:04.605Z,25.77
2019-02-20T00:28:04.618Z,25.77
2019-02-20T00:29:04.635Z,25.90
2019-02-20T00:30:04.654Z,25.81
2019-02-20T00:31:04.685Z,25.93
2019-02-20T00:32:04.688Z,25.92
2019-02-20T00:33:04.705Z,25.92
2019-02-20T00:34:04.724Z,25.87
2019-02-20T00:35:04.750Z,25.88
2019-02-20T00:36:04.759Z,25.90
2019-02-20T00:37:04.775Z,26.00
2019-02-20T00:38:04.816Z,25.90
2019-02-20T00:39:04.813Z,26.00
2019-02-20T00:40:04.829Z,25.95
2019-02-20T00:41:04.851Z,25.99
2019-02-20T00:42:04.866Z,25.95
2019-02-20T00:43:04.883Z,26.10
2019-02-20T00:44:04.900Z,26.02
2019-02-20T00:45:04.916Z,26.07
2019-02-20T00:46:04.936Z,26.06
2019-02-20T00:47:04.955Z,26.07
2019-02-20T00:48:04.978Z,26.18
2019-02-20T00:49:04.988Z,26.18
2019-02-20T00:50:05.006Z,26.22
2019-02-20T00:51:05.025Z,26.20
2019-02-20T00:52:05.041Z,26.22
2019-02-20T00:53:05.060Z,26.22
2019-02-20T00:54:05.079Z,26.19
2019-02-20T00:55:05.097Z,26.28
2019-02-20T00:56:05.110Z,26.33
2019-02-20T00:57:05.129Z,26.30
2019-02-20T00:58:05.149Z,26.31
2019-02-20T00:59:05.170Z,26.34
2019-02-20T01:00:05.188Z,26.31
2019-02-20T01:01:05.203Z,26.41
2019-02-20T01:02:05.230Z,26.37
2019-02-20T01:03:05.252Z,26.40
2019-02-20T01:04:05.254Z,26.40
2019-02-20T01:05:05.275Z,26.38
2019-02-20T01:06:05.301Z,26.40
2019-02-20T01:07:05.313Z,26.35
2019-02-20T01:08:05.326Z,26.40
2019-02-20T01:09:05.344Z,26.50
2019-02-20T01:10:05.362Z,26.53
2019-02-20T01:11:05.381Z,26.52
2019-02-20T01:12:05.398Z,26.57
2019-02-20T01:13:05.417Z,26.52
2019-02-20T01:14:05.435Z,26.57
2019-02-20T01:15:05.456Z,26.62
2019-02-20T01:16:05.472Z,26.68
2019-02-20T01:17:05.489Z,26.68
2019-02-20T01:18:05.506Z,26.68
2019-02-20T01:19:05.531Z,26.75
2019-02-20T01:20:05.542Z,26.74
2019-02-20T01:21:05.562Z,26.75
2019-02-20T01:22:05.585Z,26.81
2019-02-20T01:23:05.597Z,26.87
2019-02-20T01:24:05.613Z,26.89
2019-02-20T01:25:05.634Z,26.87
2019-02-20T01:26:05.661Z,26.92
2019-02-20T01:27:05.669Z,26.93
2019-02-20T01:28:05.687Z,26.90
2019-02-20T01:29:05.719Z,26.92
2019-02-20T01:30:05.725Z,26.93
2019-02-20T01:31:05.748Z,26.95
2019-02-20T01:32:05.763Z,26.99
2019-02-20T01:33:05.778Z,27.00
2019-02-20T01:34:05.802Z,26.97
2019-02-20T01:35:05.819Z,26.92
2019-02-20T01:36:05.838Z,26.96
2019-02-20T01:37:05.854Z,27.02
2019-02-20T01:38:05.873Z,27.00
2019-02-20T01:39:05.888Z,26.86
2019-02-20T01:40:05.909Z,26.81
2019-02-20T01:41:05.928Z,26.85
2019-02-20T01:42:05.945Z,26.87
2019-02-20T01:43:05.969Z,26.89
2019-02-20T01:44:05.982Z,26.89
2019-02-20T01:45:05.999Z,26.81
2019-02-20T01:46:06.019Z,26.92
2019-02-20T01:47:06.036Z,26.82
2019-02-20T01:48:06.054Z,26.87
2019-02-20T01:49:06.076Z,26.93
2019-02-20T01:50:06.090Z,26.90
2019-02-20T01:51:06.108Z,26.95
2019-02-20T01:52:06.129Z,26.97
2019-02-20T01:53:10.404Z,26.92
2019-02-20T01:54:06.164Z,26.97
2019-02-20T01:55:06.186Z,27.07
2019-02-20T01:56:06.205Z,27.05
2019-02-20T01:57:06.230Z,27.17
2019-02-20T01:58:06.239Z,27.15
2019-02-20T01:59:06.255Z,27.19
2019-02-20T02:00:06.273Z,27.17
2019-02-20T02:01:06.294Z,27.26
2019-02-20T02:02:06.315Z,27.22
2019-02-20T02:03:06.329Z,27.19
2019-02-20T02:04:06.346Z,27.23
2019-02-20T02:05:14.542Z,27.24
2019-02-20T02:06:06.388Z,27.24
2019-02-20T02:07:06.449Z,27.18
2019-02-20T02:08:06.421Z,27.30
2019-02-20T02:09:06.446Z,27.24
2019-02-20T02:10:06.460Z,27.29
2019-02-20T02:11:06.480Z,27.19
2019-02-20T02:12:06.496Z,27.30
2019-02-20T02:13:06.514Z,27.36
2019-02-20T02:14:06.531Z,27.41
2019-02-20T02:15:06.553Z,27.41
2019-02-20T02:16:06.571Z,27.41
2019-02-20T02:17:06.592Z,27.32
2019-02-20T02:18:06.612Z,27.37
2019-02-20T02:19:06.626Z,27.44
2019-02-20T02:20:06.642Z,27.48
2019-02-20T02:21:06.753Z,27.46
2019-02-20T02:22:06.679Z,27.45
2019-02-20T02:23:06.699Z,27.48
2019-02-20T02:24:06.718Z,27.55
2019-02-20T02:25:06.740Z,27.48
2019-02-20T02:26:10.872Z,27.55
2019-02-20T02:27:06.773Z,27.60
2019-02-20T02:28:06.792Z,27.64
2019-02-20T02:29:06.837Z,27.60
2019-02-20T02:30:06.832Z,27.61
2019-02-20T02:31:06.848Z,27.62
2019-02-20T02:32:06.867Z,27.62
2019-02-20T02:33:06.884Z,27.58
2019-02-20T02:34:06.903Z,27.61
2019-02-20T02:35:06.929Z,27.64
2019-02-20T02:36:06.942Z,27.60
2019-02-20T02:37:06.963Z,27.65
2019-02-20T02:38:06.986Z,27.52
2019-02-20T02:39:06.996Z,27.55
2019-02-20T02:40:07.022Z,27.62
2019-02-20T02:41:07.033Z,27.60
2019-02-20T02:42:07.073Z,27.74
2019-02-20T02:43:07.073Z,27.77
2019-02-20T02:44:07.089Z,27.75
2019-02-20T02:45:07.116Z,27.71
2019-02-20T02:46:07.130Z,27.77
2019-02-20T02:47:07.151Z,27.82
2019-02-20T02:48:07.168Z,27.77
2019-02-20T02:49:07.185Z,27.68
2019-02-20T02:50:07.218Z,27.71
2019-02-20T02:51:07.224Z,27.77
2019-02-20T02:52:07.249Z,27.82
2019-02-20T02:53:07.263Z,27.77
2019-02-20T02:54:07.279Z,27.86
2019-02-20T02:55:07.302Z,27.79
2019-02-20T02:56:07.315Z,27.71
2019-02-20T02:57:07.342Z,27.72
2019-02-20T02:58:07.356Z,27.77
2019-02-20T02:59:07.377Z,27.85
2019-02-20T03:00:07.393Z,27.87
2019-02-20T03:01:07.412Z,27.85
2019-02-20T03:02:07.431Z,27.89
2019-02-20T03:03:07.460Z,27.90
2019-02-20T03:04:07.468Z,27.98
2019-02-20T03:05:07.489Z,28.01
2019-02-20T03:06:07.509Z,27.99
2019-02-20T03:07:07.532Z,27.93
2019-02-20T03:08:07.552Z,28.02
2019-02-20T03:09:07.565Z,28.11
2019-02-20T03:10:07.586Z,28.08
2019-02-20T03:11:07.608Z,28.05
2019-02-20T03:12:07.620Z,28.12
2019-02-20T03:13:07.644Z,28.11
2019-02-20T03:14:07.658Z,28.22
2019-02-20T03:15:07.689Z,28.27
2019-02-20T03:16:07.696Z,28.30
2019-02-20T03:17:07.716Z,28.35
2019-02-20T03:18:07.735Z,28.34
2019-02-20T03:19:07.752Z,28.32
2019-02-20T03:20:07.774Z,28.17
2019-02-20T03:21:07.794Z,28.14
2019-02-20T03:22:07.810Z,28.07
2019-02-20T03:23:07.831Z,28.09
2019-02-20T03:24:07.865Z,28.19
2019-02-20T03:25:07.867Z,28.09
2019-02-20T03:26:07.889Z,28.17
2019-02-20T03:27:07.908Z,28.12
2019-02-20T03:28:07.927Z,28.17
2019-02-20T03:29:07.971Z,28.20
2019-02-20T03:30:07.989Z,28.23
2019-02-20T03:31:07.987Z,28.19
2019-02-20T03:32:08.006Z,28.23
2019-02-20T03:33:08.022Z,28.11
2019-02-20T03:34:09.106Z,28.19
2019-02-20T03:35:08.062Z,28.23
2019-02-20T03:36:08.080Z,28.35
2019-02-20T03:37:08.101Z,28.32
2019-02-20T03:38:08.125Z,28.30
2019-02-20T03:39:08.137Z,28.30
2019-02-20T03:40:08.159Z,28.36
2019-02-20T03:41:08.177Z,28.41
2019-02-20T03:42:08.202Z,28.42
2019-02-20T03:43:08.218Z,28.48
2019-02-20T03:44:08.249Z,28.46
2019-02-20T03:45:08.253Z,28.41
2019-02-20T03:46:08.285Z,28.45
2019-02-20T03:47:08.297Z,28.44
2019-02-20T03:48:08.314Z,28.44
2019-02-20T03:49:08.332Z,28.48
2019-02-20T03:50:08.350Z,28.58
2019-02-20T03:51:08.372Z,28.45
2019-02-20T03:52:08.391Z,28.44
2019-02-20T03:53:08.407Z,28.49
2019-02-20T03:54:08.436Z,28.56
2019-02-20T03:55:08.449Z,28.53
2019-02-20T03:56:08.465Z,28.45
2019-02-20T03:57:08.487Z,28.45
2019-02-20T03:58:08.506Z,28.63
2019-02-20T03:59:08.535Z,28.64
2019-02-20T04:00:08.544Z,28.60
2019-02-20T04:01:08.565Z,28.53
2019-02-20T04:02:08.673Z,28.64
2019-02-20T04:03:08.605Z,28.71
2019-02-20T04:04:08.622Z,28.73
2019-02-20T04:05:08.641Z,28.63
2019-02-20T04:06:08.667Z,28.63
2019-02-20T04:07:08.685Z,28.66
2019-02-20T04:08:08.698Z,28.73
2019-02-20T04:09:08.722Z,28.69
2019-02-20T04:10:09.127Z,28.78
2019-02-20T04:11:08.766Z,28.66
2019-02-20T04:12:08.777Z,28.63
2019-02-20T04:13:08.797Z,28.63
2019-02-20T04:14:08.815Z,28.56
2019-02-20T04:15:08.839Z,28.42
2019-02-20T04:16:08.859Z,28.49
2019-02-20T04:17:08.876Z,28.51
2019-02-20T04:18:10.739Z,28.56
2019-02-20T04:19:08.922Z,28.58
2019-02-20T04:20:08.935Z,28.66
2019-02-20T04:21:08.960Z,28.75
2019-02-20T04:22:08.975Z,28.61
2019-02-20T04:23:08.993Z,28.69
2019-02-20T04:24:09.016Z,28.60
2019-02-20T04:25:09.032Z,28.67
2019-02-20T04:26:09.955Z,28.71
2019-02-20T04:27:09.075Z,28.61
2019-02-20T04:28:09.109Z,28.67
2019-02-20T04:29:09.118Z,28.58
2019-02-20T04:30:09.132Z,28.75
2019-02-20T04:31:09.153Z,28.78
2019-02-20T04:32:09.180Z,28.79
2019-02-20T04:33:09.192Z,28.90
2019-02-20T04:34:09.212Z,28.79
2019-02-20T04:35:09.229Z,28.75
2019-02-20T04:36:09.256Z,28.79
2019-02-20T04:37:09.329Z,28.78
2019-02-20T04:38:09.291Z,28.76
2019-02-20T04:39:09.309Z,28.75
2019-02-20T04:40:09.334Z,28.78
2019-02-20T04:41:09.346Z,28.79
2019-02-20T04:42:09.376Z,28.76
2019-02-20T04:43:09.387Z,28.82
2019-02-20T04:44:09.409Z,28.86
2019-02-20T04:45:09.428Z,28.83
2019-02-20T04:46:09.444Z,28.93
2019-02-20T04:47:09.468Z,28.95
2019-02-20T04:48:09.489Z,28.91
2019-02-20T04:49:09.506Z,29.09
2019-02-20T04:50:09.574Z,29.09
2019-02-20T04:51:09.547Z,29.19
2019-02-20T04:52:09.563Z,29.23
2019-02-20T04:53:09.585Z,29.19
2019-02-20T04:54:13.504Z,29.09
2019-02-20T04:55:09.625Z,29.09
2019-02-20T04:56:09.683Z,29.10
2019-02-20T04:57:09.666Z,29.11
2019-02-20T04:58:09.688Z,29.14
2019-02-20T04:59:09.704Z,29.21
2019-02-20T05:00:09.724Z,29.11
2019-02-20T05:01:09.747Z,29.20
2019-02-20T05:02:09.765Z,29.21
2019-02-20T05:03:09.783Z,29.20
2019-02-20T05:04:09.806Z,29.23
2019-02-20T05:05:09.821Z,29.16
2019-02-20T05:06:09.845Z,29.20
2019-02-20T05:07:09.883Z,29.35
2019-02-20T05:08:09.883Z,29.25
2019-02-20T05:09:09.901Z,29.26
2019-02-20T05:10:09.930Z,29.31
2019-02-20T05:11:09.950Z,29.19
2019-02-20T05:12:09.961Z,29.20
2019-02-20T05:13:09.988Z,29.21
2019-02-20T05:14:10.001Z,29.36
2019-02-20T05:15:10.025Z,29.31
2019-02-20T05:16:10.042Z,29.36
2019-02-20T05:17:10.062Z,29.35
2019-02-20T05:18:10.086Z,29.41
2019-02-20T05:19:10.101Z,29.44
2019-02-20T05:20:10.121Z,29.32
2019-02-20T05:21:10.143Z,29.32
2019-02-20T05:22:10.163Z,29.35
2019-02-20T05:23:10.202Z,29.44
2019-02-20T05:24:10.200Z,29.44
2019-02-20T05:25:10.221Z,29.50
2019-02-20T05:26:10.241Z,29.50
2019-02-20T05:27:10.281Z,29.54
2019-02-20T05:28:10.280Z,29.58
2019-02-20T05:29:10.310Z,29.58
2019-02-20T05:30:10.323Z,29.50
2019-02-20T05:31:10.342Z,29.57
2019-02-20T05:32:10.363Z,29.48
2019-02-20T05:33:10.388Z,29.50
2019-02-20T05:34:10.405Z,29.50
2019-02-20T05:35:10.445Z,29.55
2019-02-20T05:36:10.456Z,29.63
2019-02-20T05:37:10.464Z,29.57
2019-02-20T05:38:10.493Z,29.54
2019-02-20T05:39:10.505Z,29.60
2019-02-20T05:40:10.530Z,29.66
2019-02-20T05:41:10.545Z,29.72
2019-02-20T05:42:10.565Z,29.76
2019-02-20T05:43:10.587Z,29.84
2019-02-20T05:44:10.602Z,29.84
2019-02-20T05:45:10.622Z,29.83
2019-02-20T05:46:10.655Z,29.72
2019-02-20T05:47:10.672Z,29.81
2019-02-20T05:48:10.687Z,29.90
2019-02-20T05:49:10.711Z,29.90
2019-02-20T05:50:10.729Z,29.91
2019-02-20T05:51:10.749Z,29.87
2019-02-20T05:52:10.769Z,29.79
2019-02-20T05:53:10.791Z,29.76
2019-02-20T05:54:10.810Z,29.83
2019-02-20T05:55:10.826Z,29.79
2019-02-20T05:56:10.846Z,29.78
2019-02-20T05:57:10.873Z,29.84
2019-02-20T05:58:10.904Z,29.75
2019-02-20T05:59:10.910Z,29.75
2019-02-20T06:00:10.937Z,29.75
2019-02-20T06:01:10.948Z,29.85
2019-02-20T06:02:10.968Z,29.87
2019-02-20T06:03:10.992Z,29.84
2019-02-20T06:04:11.029Z,29.79
2019-02-20T06:05:11.028Z,29.81
2019-02-20T06:06:11.072Z,29.62
2019-02-20T06:07:11.068Z,29.65
2019-02-20T06:08:11.112Z,29.66
2019-02-20T06:09:11.111Z,29.83
2019-02-20T06:10:11.130Z,29.88
2019-02-20T06:11:14.799Z,29.90
2019-02-20T06:12:11.172Z,29.88
2019-02-20T06:13:11.201Z,29.97
2019-02-20T06:14:11.212Z,30.02
2019-02-20T06:15:11.235Z,29.88
2019-02-20T06:16:11.253Z,29.88
2019-02-20T06:17:11.282Z,29.85
2019-02-20T06:18:11.295Z,29.92
2019-02-20T06:19:11.314Z,29.88
2019-02-20T06:20:11.333Z,29.90
2019-02-20T06:21:11.365Z,29.81
2019-02-20T06:22:11.377Z,29.81
2019-02-20T06:23:11.399Z,29.78
2019-02-20T06:24:11.415Z,29.81
2019-02-20T06:25:11.439Z,29.78
2019-02-20T06:26:11.463Z,29.85
2019-02-20T06:27:11.482Z,29.90
2019-02-20T06:28:11.513Z,29.90
2019-02-20T06:29:11.521Z,29.90
2019-02-20T06:30:11.552Z,29.83
2019-02-20T06:31:11.561Z,29.83
2019-02-20T06:32:11.577Z,29.75
2019-02-20T06:33:11.600Z,29.65
2019-02-20T06:34:11.624Z,29.70
2019-02-20T06:35:11.638Z,29.65
2019-02-20T06:36:11.660Z,29.68
2019-02-20T06:37:11.691Z,29.65
2019-02-20T06:38:11.893Z,29.55
2019-02-20T06:39:11.727Z,29.65
2019-02-20T06:40:11.747Z,29.66
2019-02-20T06:41:11.762Z,29.72
2019-02-20T06:42:11.786Z,29.66
2019-02-20T06:43:11.805Z,29.58
2019-02-20T06:44:11.826Z,29.66
2019-02-20T06:45:11.851Z,29.68
2019-02-20T06:46:11.865Z,29.81
2019-02-20T06:47:11.885Z,29.87
2019-02-20T06:48:11.906Z,29.90
2019-02-20T06:49:11.924Z,29.83
2019-02-20T06:50:11.948Z,29.85
2019-02-20T06:51:11.967Z,29.78
2019-02-20T06:52:11.989Z,29.70
2019-02-20T06:53:12.010Z,29.76
2019-02-20T06:54:12.026Z,29.83
2019-02-20T06:55:12.046Z,29.87
2019-02-20T06:56:12.067Z,29.84
2019-02-20T06:57:12.086Z,29.83
2019-02-20T06:58:12.109Z,29.92
2019-02-20T06:59:12.128Z,29.92
2019-02-20T07:00:12.147Z,29.94
2019-02-20T07:01:12.169Z,30.02
2019-02-20T07:02:12.195Z,30.09
2019-02-20T07:03:12.215Z,30.10
2019-02-20T07:04:12.230Z,30.20
2019-02-20T07:05:12.254Z,30.16
2019-02-20T07:06:12.271Z,30.21
2019-02-20T07:07:12.288Z,30.28
2019-02-20T07:08:12.315Z,30.22
2019-02-20T07:09:12.332Z,30.21
2019-02-20T07:10:12.352Z,30.21
2019-02-20T07:11:12.375Z,30.10
2019-02-20T07:12:12.390Z,30.13
2019-02-20T07:13:12.413Z,30.21
2019-02-20T07:14:12.431Z,30.16
2019-02-20T07:15:12.458Z,30.16
2019-02-20T07:16:12.473Z,30.16
2019-02-20T07:17:12.496Z,30.16
2019-02-20T07:18:12.516Z,30.12
2019-02-20T07:19:12.542Z,30.14
2019-02-20T07:20:12.562Z,30.21
2019-02-20T07:21:12.575Z,30.20
2019-02-20T07:22:12.602Z,30.27
2019-02-20T07:23:12.616Z,30.29
2019-02-20T07:24:12.638Z,30.24
2019-02-20T07:25:12.659Z,30.31
2019-02-20T07:26:12.682Z,30.24
2019-02-20T07:27:12.705Z,30.21
2019-02-20T07:28:12.719Z,30.27
2019-02-20T07:29:12.740Z,30.36
2019-02-20T07:30:12.810Z,30.34
2019-02-20T07:31:12.782Z,30.25
2019-02-20T07:32:12.904Z,30.25
2019-02-20T07:33:12.823Z,30.27
2019-02-20T07:34:12.849Z,30.22
2019-02-20T07:35:12.865Z,30.27
2019-02-20T07:36:12.884Z,30.27
2019-02-20T07:37:12.910Z,30.40
2019-02-20T07:38:12.944Z,30.31
2019-02-20T07:39:12.947Z,30.16
2019-02-20T07:40:12.971Z,30.21
2019-02-20T07:41:12.987Z,30.31
2019-02-20T07:42:13.008Z,30.21
2019-02-20T07:43:13.030Z,30.20
2019-02-20T07:44:13.054Z,30.10
2019-02-20T07:45:13.072Z,30.21
2019-02-20T07:46:13.090Z,30.22
2019-02-20T07:47:13.117Z,30.06
2019-02-20T07:48:13.133Z,30.07
2019-02-20T07:49:13.161Z,29.94
2019-02-20T07:50:13.179Z,30.02
2019-02-20T07:51:14.894Z,30.06
2019-02-20T07:52:13.216Z,29.99
2019-02-20T07:53:13.297Z,29.97
2019-02-20T07:54:13.260Z,29.95
2019-02-20T07:55:13.828Z,30.00
2019-02-20T07:56:13.307Z,30.02
2019-02-20T07:57:13.322Z,30.03
2019-02-20T07:58:13.344Z,30.09
2019-02-20T07:59:13.371Z,30.03
2019-02-20T08:00:13.381Z,30.07
2019-02-20T08:01:13.408Z,30.14
2019-02-20T08:02:13.421Z,30.25
2019-02-20T08:03:13.452Z,30.25
2019-02-20T08:04:13.472Z,30.29
2019-02-20T08:05:13.489Z,30.27
2019-02-20T08:06:13.507Z,30.22
2019-02-20T08:07:13.526Z,30.29
2019-02-20T08:08:13.545Z,30.27
2019-02-20T08:09:13.563Z,30.20
2019-02-20T08:10:13.631Z,30.10
2019-02-20T08:11:13.610Z,30.18
2019-02-20T08:12:13.625Z,30.21
2019-02-20T08:13:13.649Z,30.25
2019-02-20T08:14:13.682Z,30.25
2019-02-20T08:15:13.711Z,30.12
2019-02-20T08:16:13.709Z,30.28
2019-02-20T08:17:13.728Z,30.28
2019-02-20T08:18:13.749Z,30.13
2019-02-20T08:19:13.771Z,30.12
2019-02-20T08:20:13.792Z,30.22
2019-02-20T08:21:13.814Z,30.13
2019-02-20T08:22:13.837Z,30.13
2019-02-20T08:23:13.858Z,30.10
2019-02-20T08:24:13.903Z,29.91
2019-02-20T08:25:22.265Z,29.97
2019-02-20T08:26:13.914Z,29.85
2019-02-20T08:27:13.935Z,29.84
2019-02-20T08:28:13.977Z,29.87
2019-02-20T08:29:13.978Z,29.87
2019-02-20T08:30:14.007Z,29.83
2019-02-20T08:31:14.020Z,29.83
2019-02-20T08:32:14.043Z,29.87
2019-02-20T08:33:14.060Z,29.91
2019-02-20T08:34:14.080Z,29.99
2019-02-20T08:35:14.101Z,30.20
2019-02-20T08:36:14.128Z,30.05
2019-02-20T08:37:14.140Z,30.14
2019-02-20T08:38:14.169Z,30.24
2019-02-20T08:39:14.186Z,30.25
2019-02-20T08:40:14.205Z,30.34
2019-02-20T08:41:14.263Z,30.36
2019-02-20T08:42:14.255Z,30.21
2019-02-20T08:43:14.270Z,30.14
2019-02-20T08:44:14.288Z,29.99
2019-02-20T08:45:14.316Z,29.88
2019-02-20T08:46:14.328Z,29.87
2019-02-20T08:47:14.354Z,29.83
2019-02-20T08:48:14.372Z,29.85
2019-02-20T08:49:14.387Z,29.66
2019-02-20T08:50:14.408Z,29.63
2019-02-20T08:51:14.430Z,29.68
2019-02-20T08:52:14.458Z,29.65
2019-02-20T08:53:14.471Z,29.55
2019-02-20T08:54:14.489Z,29.60
2019-02-20T08:55:14.609Z,29.57
2019-02-20T08:56:14.534Z,29.51
2019-02-20T08:57:14.551Z,29.58
2019-02-20T08:58:14.572Z,29.57
2019-02-20T08:59:14.607Z,29.62
2019-02-20T09:00:14.614Z,29.79
2019-02-20T09:01:14.638Z,29.83
2019-02-20T09:02:14.658Z,29.79
2019-02-20T09:03:14.675Z,29.70
2019-02-20T09:04:14.692Z,29.73
2019-02-20T09:05:14.714Z,29.73
2019-02-20T09:06:14.738Z,29.78
2019-02-20T09:07:14.754Z,29.79
2019-02-20T09:08:14.777Z,29.54
2019-02-20T09:09:14.804Z,29.51
2019-02-20T09:10:17.198Z,29.54
2019-02-20T09:11:14.844Z,29.55
2019-02-20T09:12:14.862Z,29.57
2019-02-20T09:13:14.880Z,29.53
2019-02-20T09:14:14.902Z,29.54
2019-02-20T09:15:14.926Z,29.48
2019-02-20T09:16:14.945Z,29.51
2019-02-20T09:17:14.957Z,29.53
2019-02-20T09:18:14.983Z,29.55
2019-02-20T09:19:15.003Z,29.53
2019-02-20T09:20:15.020Z,29.47
2019-02-20T09:21:15.042Z,29.47
2019-02-20T09:22:15.062Z,29.48
2019-02-20T09:23:15.084Z,29.39
2019-02-20T09:24:15.115Z,29.51
2019-02-20T09:25:19.963Z,29.35
2019-02-20T09:26:15.140Z,29.38
2019-02-20T09:27:15.179Z,29.33
2019-02-20T09:28:15.181Z,29.35
2019-02-20T09:29:15.203Z,29.29
2019-02-20T09:30:15.231Z,29.14
2019-02-20T09:31:15.244Z,29.11
2019-02-20T09:32:15.274Z,29.23
2019-02-20T09:33:15.284Z,29.14
2019-02-20T09:34:15.307Z,29.10
2019-02-20T09:35:15.329Z,29.19
2019-02-20T09:36:15.353Z,29.09
2019-02-20T09:37:15.371Z,29.20
2019-02-20T09:38:15.383Z,29.13
2019-02-20T09:39:15.405Z,29.13
2019-02-20T09:40:15.433Z,29.10
2019-02-20T09:41:15.443Z,29.02
2019-02-20T09:42:15.465Z,29.13
2019-02-20T09:43:15.493Z,29.10
2019-02-20T09:44:15.501Z,28.93
2019-02-20T09:45:15.521Z,28.95
2019-02-20T09:46:15.544Z,28.95
2019-02-20T09:47:15.564Z,28.95
2019-02-20T09:48:15.623Z,29.02
2019-02-20T09:49:15.603Z,28.98
2019-02-20T09:50:15.629Z,29.04
2019-02-20T09:51:15.642Z,29.07
2019-02-20T09:52:15.660Z,29.02
2019-02-20T09:53:15.680Z,28.81
2019-02-20T09:54:15.702Z,28.79
2019-02-20T09:55:15.720Z,28.78
2019-02-20T09:56:16.245Z,28.73
2019-02-20T09:57:15.759Z,28.78
2019-02-20T09:58:15.796Z,28.75
2019-02-20T09:59:15.801Z,28.73
2019-02-20T10:00:15.827Z,28.76
2019-02-20T10:01:15.847Z,28.76
2019-02-20T10:02:15.863Z,28.75
2019-02-20T10:03:15.877Z,28.82
2019-02-20T10:04:15.899Z,28.75
2019-02-20T10:05:15.920Z,28.60
2019-02-20T10:06:15.937Z,28.67
2019-02-20T10:07:15.956Z,28.64
2019-02-20T10:08:15.978Z,28.56
2019-02-20T10:09:16.358Z,28.61
2019-02-20T10:10:16.016Z,28.67
2019-02-20T10:11:16.038Z,28.60
2019-02-20T10:12:16.066Z,28.58
2019-02-20T10:13:16.073Z,28.57
2019-02-20T10:14:16.095Z,28.72
2019-02-20T10:15:16.154Z,28.66
2019-02-20T10:16:16.141Z,28.75
2019-02-20T10:17:16.153Z,28.67
2019-02-20T10:18:16.180Z,28.75
2019-02-20T10:19:16.192Z,28.67
2019-02-20T10:20:16.208Z,28.69
2019-02-20T10:21:17.269Z,28.76
2019-02-20T10:22:16.249Z,28.66
2019-02-20T10:23:16.267Z,28.54
2019-02-20T10:24:16.290Z,28.69
2019-02-20T10:25:16.315Z,28.54
2019-02-20T10:26:16.327Z,28.64
2019-02-20T10:27:16.368Z,28.67
2019-02-20T10:28:16.370Z,28.64
2019-02-20T10:29:16.389Z,28.60
2019-02-20T10:30:16.404Z,28.51
2019-02-20T10:31:16.426Z,28.51
2019-02-20T10:32:16.449Z,28.51
2019-02-20T10:33:16.479Z,28.42
2019-02-20T10:34:16.533Z,28.49
2019-02-20T10:35:16.508Z,28.42
2019-02-20T10:36:16.521Z,28.45
2019-02-20T10:37:16.543Z,28.39
2019-02-20T10:38:16.562Z,28.36
2019-02-20T10:39:16.584Z,28.24
2019-02-20T10:40:16.633Z,28.36
2019-02-20T10:41:16.626Z,28.29
2019-02-20T10:42:17.491Z,28.32
2019-02-20T10:43:16.661Z,28.23
2019-02-20T10:44:16.681Z,28.35
2019-02-20T10:45:16.735Z,28.30
2019-02-20T10:46:16.715Z,28.30
2019-02-20T10:47:16.735Z,28.38
2019-02-20T10:48:16.753Z,28.29
2019-02-20T10:49:16.780Z,28.20
2019-02-20T10:50:16.796Z,28.17
2019-02-20T10:51:16.815Z,28.14
2019-02-20T10:52:16.850Z,28.05
2019-02-20T10:53:16.854Z,28.11
2019-02-20T10:54:16.913Z,28.09
2019-02-20T10:55:16.895Z,28.11
2019-02-20T10:56:16.913Z,28.09
2019-02-20T10:57:16.930Z,28.02
2019-02-20T10:58:16.949Z,28.01
2019-02-20T10:59:16.982Z,28.08
2019-02-20T11:00:23.941Z,28.05
2019-02-20T11:01:17.045Z,28.12
2019-02-20T11:02:17.024Z,28.01
2019-02-20T11:03:17.047Z,28.04
2019-02-20T11:04:17.061Z,27.97
2019-02-20T11:05:17.085Z,27.98
2019-02-20T11:06:17.099Z,27.99
2019-02-20T11:07:17.119Z,28.02
2019-02-20T11:08:17.138Z,27.95
2019-02-20T11:09:17.164Z,28.01
2019-02-20T11:10:17.202Z,28.02
2019-02-20T11:11:17.202Z,27.89
2019-02-20T11:12:17.216Z,27.87
2019-02-20T11:13:17.236Z,27.86
2019-02-20T11:14:17.254Z,27.89
2019-02-20T11:15:17.273Z,27.92
2019-02-20T11:16:17.294Z,27.89
2019-02-20T11:17:17.311Z,27.83
2019-02-20T11:18:17.337Z,27.85
2019-02-20T11:19:17.354Z,27.87
2019-02-20T11:20:17.375Z,27.85
2019-02-20T11:21:17.388Z,27.83
2019-02-20T11:22:17.406Z,27.79
2019-02-20T11:23:17.426Z,27.80
2019-02-20T11:24:17.941Z,27.86
2019-02-20T11:25:17.461Z,27.77
2019-02-20T11:26:18.485Z,27.83
2019-02-20T11:27:19.388Z,27.85
2019-02-20T11:28:17.525Z,27.85
2019-02-20T11:29:17.542Z,27.85
2019-02-20T11:30:17.563Z,27.83
2019-02-20T11:31:17.580Z,27.86
2019-02-20T11:32:17.601Z,27.89
2019-02-20T11:33:17.617Z,27.87
2019-02-20T11:34:17.637Z,27.97
2019-02-20T11:35:17.653Z,27.99
2019-02-20T11:36:17.674Z,27.90
2019-02-20T11:37:17.689Z,27.89
2019-02-20T11:38:17.708Z,27.86
2019-02-20T11:39:17.738Z,27.82
2019-02-20T11:40:17.746Z,27.79
2019-02-20T11:41:17.767Z,27.77
2019-02-20T11:42:17.787Z,27.86
2019-02-20T11:43:17.813Z,27.77
2019-02-20T11:44:21.082Z,27.83
2019-02-20T11:45:17.854Z,27.85
2019-02-20T11:46:17.864Z,27.85
2019-02-20T11:47:17.890Z,27.72
2019-02-20T11:48:17.902Z,27.77
2019-02-20T11:49:17.917Z,27.74
2019-02-20T11:50:17.941Z,27.71
2019-02-20T11:51:17.960Z,27.75
2019-02-20T11:52:18.516Z,27.74
2019-02-20T11:53:17.997Z,27.70
2019-02-20T11:54:18.016Z,27.70
2019-02-20T11:55:18.110Z,27.75
2019-02-20T11:56:26.223Z,27.72
2019-02-20T11:57:18.067Z,27.74
2019-02-20T11:58:18.098Z,27.65
2019-02-20T11:59:18.110Z,27.68
2019-02-20T12:00:18.128Z,27.71
2019-02-20T12:01:18.145Z,27.72
2019-02-20T12:02:18.165Z,27.79
2019-02-20T12:03:18.183Z,27.64
2019-02-20T12:04:18.200Z,27.64
2019-02-20T12:05:18.220Z,27.49
2019-02-20T12:06:18.245Z,27.61
2019-02-20T12:07:18.262Z,27.61
2019-02-20T12:08:18.284Z,27.51
2019-02-20T12:09:18.299Z,27.49
2019-02-20T12:10:18.365Z,27.58
2019-02-20T12:11:18.341Z,27.58
2019-02-20T12:12:18.354Z,27.49
2019-02-20T12:13:18.373Z,27.55
2019-02-20T12:14:18.390Z,27.52
2019-02-20T12:15:18.418Z,27.48
2019-02-20T12:16:18.445Z,27.39
2019-02-20T12:17:18.446Z,27.41
2019-02-20T12:18:18.474Z,27.44
2019-02-20T12:19:18.486Z,27.49
2019-02-20T12:20:18.516Z,27.44
2019-02-20T12:21:18.525Z,27.44
2019-02-20T12:22:18.543Z,27.48
2019-02-20T12:23:18.558Z,27.54
2019-02-20T12:24:18.581Z,27.44
2019-02-20T12:25:18.597Z,27.33
2019-02-20T12:26:18.617Z,27.37
2019-02-20T12:27:18.647Z,27.30
2019-02-20T12:28:18.661Z,27.36
2019-02-20T12:29:18.673Z,27.44
2019-02-20T12:30:18.714Z,27.26
2019-02-20T12:31:18.712Z,27.32
2019-02-20T12:32:18.735Z,27.24
2019-02-20T12:33:18.747Z,27.30
2019-02-20T12:34:18.765Z,27.24
2019-02-20T12:35:18.789Z,27.29
2019-02-20T12:36:18.802Z,27.23
2019-02-20T12:37:18.822Z,27.24
2019-02-20T12:38:18.842Z,27.29
2019-02-20T12:39:18.858Z,27.26
2019-02-20T12:40:18.876Z,27.32
2019-02-20T12:41:18.906Z,27.36
2019-02-20T12:42:18.916Z,27.30
2019-02-20T12:43:18.935Z,27.27
2019-02-20T12:44:18.951Z,27.27
2019-02-20T12:45:18.974Z,27.22
2019-02-20T12:46:18.993Z,27.27
2019-02-20T12:47:19.009Z,27.32
2019-02-20T12:48:19.028Z,27.41
2019-02-20T12:49:19.045Z,27.22
2019-02-20T12:50:19.063Z,27.29
2019-02-20T12:51:19.085Z,27.23
2019-02-20T12:52:19.104Z,27.29